Hauptseite
METAR-TAF:

METAR-TAF

Flughäfen :

Canefield Airport

Roseau, Dominica

Breite: 15-32N, Länge: 061-24W, Höhe: 5 m

Beobachtung

Neuester Wetterbericht von vor 9 Stunden und 43 Minuten, um 20:00 UTC
Wind 7 kt aus Ost
Temperatur 30°C
Luftfeuchtigkeit 43%
Luftdruck 1013 hPa
Sichtweite 10 km oder mehr
Leicht bewölkt in der Höhe von 2000 ft

METAR: TDCF 272000Z 10007KT 9999 FEW020 30/16 Q1013

Zeit: 01:43 (05:43 UTC)


TAF: fehlend

Wetterbeobachtungen und Prognosen von mehr als 4000 Flughäfen (METAR und TAF Bericht).

Die verfügbaren Stationen werden durch gelbe und rote Markierungen auf der Karte dargestellt.

Führen Sie die Maus auf sie, um den Namen der Station zu sehen.

Darauf klicken, um die Beobachtung von Wetterbeobachtungen und Prognosen zu sehen.

Um die Karte zu ändern : klicken Sie auf den grünen Tasten mit einem schwarzen Kreuz Zum Vergrößern, auf den grünen Button mit einem Gedankenstrich zu verkleinern, oder auf die grünen Pfeile für benachbarte Karten.


METAR-TAF: